METAR AND TAF INFORMATION
METAR FOR KSJX
ADDS - METARS form results

(1057 UTC 20 June 2018)
Data provider http://aviationweather.gov/adds/metars/
 
METAR text: KSJX 201055Z AUTO 00000KT 10SM CLR 12/12 A2993 RMK AO2 T01180117
Conditions at: KSJX (BEAVER ISLAND , MI, US) observed 1055 UTC 20 June 2018
Temperature: 11.8°C (53°F)
Dewpoint: 11.7°C (53°F) [RH = 99%]
Pressure (altimeter): 29.93 inches Hg (1013.6 mb)
Winds: calm
Visibility: 10 or more miles (16+ km)
Ceiling: at least 12,000 feet AGL
Clouds: sky clear below 12,000 feet AGL
Weather: automated observation with no human augmentation;
there may or may not be significant weather present at this time

METAR text: KSJX 201036Z AUTO 00000KT 10SM CLR 11/11 A2993 RMK AO2 T01050105
Conditions at: KSJX (BEAVER ISLAND , MI, US) observed 1036 UTC 20 June 2018
Temperature: 10.5°C (51°F)
Dewpoint: 10.5°C (51°F) [RH = 100%]
Pressure (altimeter): 29.93 inches Hg (1013.6 mb)
Winds: calm
Visibility: 10 or more miles (16+ km)
Ceiling: at least 12,000 feet AGL
Clouds: sky clear below 12,000 feet AGL
Weather: automated observation with no human augmentation;
there may or may not be significant weather present at this time

METAR text: KSJX 201035Z AUTO 00000KT 10SM CLR 11/11 A2993 RMK AO2 T01050105
Conditions at: KSJX (BEAVER ISLAND , MI, US) observed 1035 UTC 20 June 2018
Temperature: 10.5°C (51°F)
Dewpoint: 10.5°C (51°F) [RH = 100%]
Pressure (altimeter): 29.93 inches Hg (1013.6 mb)
Winds: calm
Visibility: 10 or more miles (16+ km)
Ceiling: at least 12,000 feet AGL
Clouds: sky clear below 12,000 feet AGL
Weather: automated observation with no human augmentation;
there may or may not be significant weather present at this time

METAR text: KSJX 201015Z AUTO 00000KT 10SM CLR 10/10 A2993 RMK AO2 T01030102
Conditions at: KSJX (BEAVER ISLAND , MI, US) observed 1015 UTC 20 June 2018
Temperature: 10.3°C (51°F)
Dewpoint: 10.2°C (50°F) [RH = 99%]
Pressure (altimeter): 29.93 inches Hg (1013.6 mb)
Winds: calm
Visibility: 10 or more miles (16+ km)
Ceiling: at least 12,000 feet AGL
Clouds: sky clear below 12,000 feet AGL
Weather: automated observation with no human augmentation;
there may or may not be significant weather present at this time

 AIRPORT MAP

 RUNWAY INFORMATION
Runway 05 Runway length 2130 ft Runway width 120 ft
Runway elevation 0 ft Runway displaced threshold 0 ft Runway heading 42
Runway 23 Runway length 2130 ft Runway width 120 ft
Runway elevation 0 ft Runway displaced threshold 0 ft Runway heading 222
Runway 09 Runway length 4300 ft Runway width 75 ft
Runway elevation 669 ft Runway displaced threshold 0 ft Runway heading 90
Runway 27 Runway length 4300 ft Runway width 75 ft
Runway elevation 667 ft Runway displaced threshold 0 ft Runway heading 270
Runway 14 Runway length 3300 ft Runway width 120 ft
Runway elevation 669 ft Runway displaced threshold 0 ft Runway heading 132
Runway 32 Runway length 3300 ft Runway width 120 ft
Runway elevation 669 ft Runway displaced threshold 600 ft Runway heading 312

 AIRPORT FREQUENCIES
Type AWOS Name AWOS 3 Frequency 118.075 MHZ
Type CNTR Name MINNEAPOLI Frequency 134.6 MHZ
Type UNIC Name CTAF/UNICO Frequency 122.8 MHZ

 AIRPORT NEAR NAVIGATION AIDS



Powered by Virtual Airlines Manager [v2.6.2]